Current Weather

Carroll County Rgnl/Jack B Poage Fld

Westminster, Maryland (KDMW)

Report from: Friday, April 19, 2024 4:25 AM EDT
Current time: Friday, April 19, 2024 4:43 AM EDT

Nearby weather – Weather history – Daily summaries
Weather forecast

Temperature11.0°C (51.8°F)
Dew point9.0°C (48.2°F)
Winds 3 kts (1.5 m/s, 3.5 mph) East-Southeast (120°)
Visibility7 mi. (11.3 km)
Clouds Ceiling: Overcast 700 ft. (213 m)
Altimeter30.11 in.Hg (1020 mB)
Relative humidity87 %
Density altitude-530 ft. (-162 m)
Remarks Fully automated report
Automated weather observing station with precipitation discriminator
Flight conditions Instrument Meteorological Conditions
Raw dataKDMW 190825Z AUTO 12003KT 7SM OVC007 11/09 A3011 RMK AO2
An error has occurred. This application may no longer respond until reloaded. Reload 🗙